createdAt,value
2019-05-15T00:00:41.241Z,28.42
2019-05-15T00:02:49.130Z,27.80
2019-05-15T00:04:58.513Z,27.95
2019-05-15T00:07:08.806Z,27.75
2019-05-15T00:09:18.885Z,23.50
2019-05-15T00:11:25.962Z,21.12
2019-05-15T00:13:33.983Z,18.75
2019-05-15T00:15:42.858Z,25.72
2019-05-15T00:17:50.881Z,26.27
2019-05-15T00:19:58.765Z,26.60
2019-05-15T00:22:08.603Z,28.02
2019-05-15T00:24:17.876Z,31.42
2019-05-15T00:26:26.127Z,28.35
2019-05-15T00:28:34.114Z,23.20
2019-05-15T00:30:42.148Z,19.30
2019-05-15T00:32:50.355Z,18.23
2019-05-15T00:34:58.430Z,22.25
2019-05-15T00:37:08.913Z,20.00
2019-05-15T00:39:16.099Z,28.23
2019-05-15T00:41:24.332Z,13.88
2019-05-15T00:43:32.164Z,31.82
2019-05-15T00:45:40.097Z,26.07
2019-05-15T00:47:48.750Z,26.05
2019-05-15T00:49:58.067Z,23.38
2019-05-15T00:52:11.774Z,23.62
2019-05-15T00:54:15.966Z,24.60
2019-05-15T00:56:23.854Z,17.92
2019-05-15T00:58:31.737Z,26.55
2019-05-15T01:00:43.515Z,19.75
2019-05-15T01:02:51.391Z,30.43
2019-05-15T01:04:59.409Z,22.60
2019-05-15T01:07:08.345Z,29.15
2019-05-15T01:09:18.717Z,34.27
2019-05-15T01:11:28.475Z,27.75
2019-05-15T01:13:38.718Z,25.43
2019-05-15T01:15:48.945Z,33.98
2019-05-15T01:17:58.285Z,26.80
2019-05-15T01:20:08.510Z,29.85
2019-05-15T01:22:16.704Z,29.75
2019-05-15T01:24:24.900Z,28.62
2019-05-15T01:26:32.911Z,31.87
2019-05-15T01:28:40.700Z,31.90
2019-05-15T01:30:48.851Z,26.07
2019-05-15T01:32:59.065Z,24.25
2019-05-15T01:35:09.517Z,26.70
2019-05-15T01:37:18.908Z,27.77
2019-05-15T01:39:28.925Z,29.82
2019-05-15T01:41:38.474Z,27.15
2019-05-15T01:43:45.908Z,27.82
2019-05-15T01:45:53.823Z,28.80
2019-05-15T01:48:01.707Z,25.75
2019-05-15T01:50:10.312Z,20.97
2019-05-15T01:52:18.790Z,19.70
2019-05-15T01:54:28.958Z,24.98
2019-05-15T01:56:38.760Z,24.20
2019-05-15T01:58:48.676Z,19.02
2019-05-15T02:00:58.808Z,15.58
2019-05-15T02:03:06.474Z,21.37
2019-05-15T02:05:15.095Z,23.77
2019-05-15T02:07:22.866Z,19.35
2019-05-15T02:09:30.752Z,23.27
2019-05-15T02:11:38.763Z,17.27
2019-05-15T02:13:48.031Z,24.55
2019-05-15T02:15:58.905Z,26.50
2019-05-15T02:18:08.429Z,24.27
2019-05-15T02:20:18.762Z,24.30
2019-05-15T02:22:28.297Z,21.07
2019-05-15T02:24:38.846Z,22.42
2019-05-15T02:26:48.168Z,18.92
2019-05-15T02:28:55.692Z,25.00
2019-05-15T02:31:03.615Z,13.10
2019-05-15T02:33:11.671Z,24.37
2019-05-15T02:35:19.614Z,22.80
2019-05-15T02:37:29.345Z,20.75
2019-05-15T02:39:38.844Z,12.45
2019-05-15T02:41:49.163Z,21.02
2019-05-15T02:43:59.109Z,18.40
2019-05-15T02:46:06.207Z,18.75
2019-05-15T02:48:15.096Z,19.48
2019-05-15T02:50:23.316Z,19.27
2019-05-15T02:52:31.275Z,20.12
2019-05-15T02:54:39.954Z,15.70
2019-05-15T02:56:49.531Z,18.32
2019-05-15T02:59:00.036Z,17.48
2019-05-15T03:01:09.316Z,18.82
2019-05-15T03:03:17.001Z,13.15
2019-05-15T03:05:25.002Z,16.48
2019-05-15T03:07:32.921Z,11.65
2019-05-15T03:09:40.922Z,16.02
2019-05-15T03:11:49.700Z,15.88
2019-05-15T03:13:59.274Z,16.50
2019-05-15T03:16:10.124Z,15.20
2019-05-15T03:18:19.431Z,11.05
2019-05-15T03:20:29.798Z,13.32
2019-05-15T03:22:39.689Z,12.47
2019-05-15T03:24:46.431Z,11.75
2019-05-15T03:26:55.630Z,11.68
2019-05-15T03:29:03.732Z,11.12
2019-05-15T03:31:33.082Z,7.45
2019-05-15T03:33:27.837Z,8.03
2019-05-15T03:35:32.894Z,9.83
2019-05-15T03:37:40.657Z,6.90
2019-05-15T03:39:51.850Z,6.83
2019-05-15T03:41:58.882Z,8.98
2019-05-15T03:44:09.537Z,5.87
2019-05-15T03:46:19.679Z,7.15
2019-05-15T03:48:28.692Z,7.75
2019-05-15T03:50:35.760Z,7.67
2019-05-15T03:52:43.799Z,10.28
2019-05-15T03:54:51.904Z,11.10
2019-05-15T03:56:59.969Z,12.23
2019-05-15T03:59:09.325Z,12.45
2019-05-15T04:01:30.036Z,14.07
2019-05-15T04:03:29.915Z,11.12
2019-05-15T04:05:39.142Z,15.28
2019-05-15T04:07:49.601Z,17.12
2019-05-15T04:09:58.760Z,15.72
2019-05-15T04:12:09.324Z,17.10
2019-05-15T04:14:19.137Z,32.15
2019-05-15T04:16:29.314Z,17.87
2019-05-15T04:18:39.358Z,16.60
2019-05-15T04:20:49.172Z,12.33
2019-05-15T04:22:55.729Z,20.55
2019-05-15T04:25:05.721Z,19.77
2019-05-15T04:27:14.646Z,23.05
2019-05-15T04:29:22.498Z,26.80
2019-05-15T04:31:49.850Z,25.48
2019-05-15T04:33:40.584Z,20.45
2019-05-15T04:35:49.745Z,18.12
2019-05-15T04:37:59.681Z,27.07
2019-05-15T04:40:09.458Z,14.05
2019-05-15T04:42:20.111Z,26.97
2019-05-15T04:56:32.328Z,34.53
2019-05-15T05:07:41.021Z,53.90
2019-05-15T05:11:38.314Z,48.23
2019-05-15T05:15:24.208Z,54.83
2019-05-15T05:18:41.225Z,56.60
2019-05-15T05:20:49.580Z,51.48
2019-05-15T05:22:58.380Z,31.33
2019-05-15T05:25:08.656Z,48.38
2019-05-15T05:27:18.258Z,42.35
2019-05-15T05:29:28.005Z,52.27
2019-05-15T05:31:38.870Z,60.30
2019-05-15T05:33:48.504Z,44.55
2019-05-15T05:35:58.168Z,56.35
2019-05-15T05:38:07.743Z,44.85
2019-05-15T05:40:18.789Z,39.95
2019-05-15T05:42:25.953Z,30.70
2019-05-15T05:44:33.910Z,17.75
2019-05-15T05:46:41.941Z,38.92
2019-05-15T05:48:50.862Z,34.43
2019-05-15T05:50:58.813Z,50.20
2019-05-15T05:53:08.828Z,44.42
2019-05-15T05:55:17.872Z,43.58
2019-05-15T05:57:27.856Z,39.60
2019-05-15T05:59:35.329Z,38.85
2019-05-15T06:01:44.341Z,32.65
2019-05-15T06:03:52.377Z,36.73
2019-05-15T06:06:00.209Z,34.80
2019-05-15T06:08:09.004Z,38.35
2019-05-15T06:10:18.279Z,28.40
2019-05-15T06:12:28.180Z,30.75
2019-05-15T06:14:38.014Z,32.23
2019-05-15T06:16:47.991Z,23.70
2019-05-15T06:18:58.470Z,23.02
2019-05-15T06:21:08.811Z,15.88
2019-05-15T06:23:22.168Z,14.68
2019-05-15T06:25:25.473Z,18.65
2019-05-15T06:27:33.433Z,13.55
2019-05-15T06:29:41.387Z,21.02
2019-05-15T06:31:49.557Z,19.40
2019-05-15T06:33:58.688Z,20.85
2019-05-15T06:36:08.891Z,13.18
2019-05-15T06:38:19.305Z,14.60
2019-05-15T06:40:28.938Z,19.00
2019-05-15T06:42:39.384Z,20.52
2019-05-15T06:44:48.330Z,20.70
2019-05-15T06:46:58.578Z,21.68
2019-05-15T06:49:05.856Z,17.80
2019-05-15T06:51:13.843Z,17.73
2019-05-15T06:53:21.827Z,10.65
2019-05-15T06:55:29.714Z,17.87
2019-05-15T06:57:39.717Z,10.13
2019-05-15T06:59:48.457Z,17.80
2019-05-15T07:01:59.461Z,19.67
2019-05-15T07:04:08.404Z,20.45
2019-05-15T07:06:18.182Z,20.08
2019-05-15T07:08:28.840Z,16.67
2019-05-15T07:10:37.747Z,22.35
2019-05-15T07:12:49.168Z,23.20
2019-05-15T07:14:58.058Z,19.05
2019-05-15T07:17:05.512Z,23.30
2019-05-15T07:19:13.496Z,19.67
2019-05-15T07:21:21.643Z,19.77
2019-05-15T07:23:30.674Z,18.17
2019-05-15T07:25:39.230Z,17.40
2019-05-15T07:27:47.945Z,19.55
2019-05-15T07:29:58.217Z,22.02
2019-05-15T07:32:08.056Z,20.80
2019-05-15T07:34:15.739Z,17.98
2019-05-15T07:36:23.762Z,23.20
2019-05-15T07:38:31.667Z,22.37
2019-05-15T07:40:39.669Z,24.57
2019-05-15T07:42:49.039Z,26.25
2019-05-15T07:44:58.806Z,25.60
2019-05-15T07:47:08.891Z,22.07
2019-05-15T07:49:18.179Z,24.20
2019-05-15T07:51:28.487Z,26.05
2019-05-15T07:53:38.208Z,29.90
2019-05-15T07:55:45.514Z,25.48
2019-05-15T07:57:53.406Z,29.72
2019-05-15T08:00:01.364Z,31.30
2019-05-15T08:02:09.861Z,31.40
2019-05-15T08:04:26.188Z,33.83
2019-05-15T08:06:28.993Z,29.42
2019-05-15T08:08:39.403Z,29.07
2019-05-15T08:10:48.865Z,34.55
2019-05-15T08:12:58.141Z,31.65
2019-05-15T08:15:15.070Z,36.98
2019-05-15T08:17:22.960Z,36.45
2019-05-15T08:19:32.021Z,35.35
2019-05-15T08:21:39.944Z,35.50
2019-05-15T08:23:48.425Z,37.93
2019-05-15T08:25:57.993Z,36.25
2019-05-15T08:28:08.775Z,38.02
2019-05-15T08:30:18.896Z,33.40
2019-05-15T08:32:30.062Z,36.53
2019-05-15T08:34:38.679Z,32.15
2019-05-15T08:36:48.279Z,20.72
2019-05-15T08:38:59.068Z,51.40
2019-05-15T08:41:11.140Z,31.87
2019-05-15T08:43:18.149Z,38.60
2019-05-15T08:45:28.148Z,48.00
2019-05-15T08:47:38.399Z,31.40
2019-05-15T08:49:48.370Z,9.23
2019-05-15T08:51:58.238Z,30.10
2019-05-15T08:54:05.755Z,24.80
2019-05-15T08:56:14.878Z,29.55
2019-05-15T08:58:22.953Z,32.30
2019-05-15T09:00:31.033Z,31.25
2019-05-15T09:02:39.147Z,33.30
2019-05-15T09:04:48.687Z,27.95
2019-05-15T09:07:01.026Z,31.80
2019-05-15T09:09:09.554Z,31.65
2019-05-15T09:11:19.259Z,43.42
2019-05-15T09:13:29.301Z,36.38
2019-05-15T09:15:39.581Z,36.58
2019-05-15T09:17:48.813Z,29.23
2019-05-15T09:19:58.837Z,36.08
2019-05-15T09:22:09.051Z,36.95
2019-05-15T09:24:16.499Z,32.25
2019-05-15T09:26:24.410Z,26.93
2019-05-15T09:28:32.358Z,35.65
2019-05-15T09:30:40.847Z,31.17
2019-05-15T09:32:48.774Z,28.92
2019-05-15T09:34:59.299Z,26.15
2019-05-15T09:37:08.540Z,24.67
2019-05-15T09:39:18.264Z,30.60
2019-05-15T09:41:26.010Z,29.80
2019-05-15T09:43:33.960Z,26.65
2019-05-15T09:45:41.872Z,28.23
2019-05-15T09:47:49.760Z,24.35
2019-05-15T09:49:58.886Z,23.62
2019-05-15T09:52:09.019Z,19.67
2019-05-15T09:54:19.075Z,9.83
2019-05-15T09:56:29.091Z,20.35
2019-05-15T09:58:38.194Z,14.83
2019-05-15T10:00:52.336Z,14.30
2019-05-15T10:02:56.473Z,16.80
2019-05-15T10:05:10.424Z,20.52
2019-05-15T10:07:15.082Z,16.67
2019-05-15T10:09:23.142Z,14.85
2019-05-15T10:11:31.062Z,15.45
2019-05-15T10:13:39.427Z,14.60
2019-05-15T10:15:50.844Z,10.48
2019-05-15T10:17:59.782Z,13.45
2019-05-15T10:20:09.214Z,13.10
2019-05-15T10:22:18.650Z,11.28
2019-05-15T10:24:28.079Z,11.70
2019-05-15T10:26:36.158Z,11.55
2019-05-15T10:28:45.043Z,11.45
2019-05-15T10:30:54.120Z,12.05
2019-05-15T10:33:02.107Z,11.60
2019-05-15T10:35:24.688Z,6.60
2019-05-15T10:37:20.097Z,9.50
2019-05-15T10:39:28.840Z,9.38
2019-05-15T10:41:38.815Z,8.45
2019-05-15T10:43:54.621Z,11.68
2019-05-15T10:45:58.736Z,12.70
2019-05-15T10:48:09.409Z,7.45
2019-05-15T10:50:19.071Z,15.10
2019-05-15T10:52:28.693Z,37.60
2019-05-15T10:54:38.162Z,28.83
2019-05-15T10:56:46.168Z,18.75
2019-05-15T10:58:54.134Z,29.27
2019-05-15T11:01:03.379Z,15.72
2019-05-15T11:03:12.737Z,14.95
2019-05-15T11:05:21.033Z,7.35
2019-05-15T11:07:28.988Z,14.00
2019-05-15T11:09:40.528Z,14.05
2019-05-15T11:11:51.209Z,21.62
2019-05-15T11:14:00.288Z,10.80
2019-05-15T11:16:07.548Z,16.67
2019-05-15T11:18:15.338Z,8.98
2019-05-15T11:20:23.636Z,10.30
2019-05-15T11:22:31.658Z,9.08
2019-05-15T11:24:39.613Z,12.37
2019-05-15T11:26:50.008Z,7.95
2019-05-15T11:28:58.785Z,9.63
2019-05-15T11:31:09.990Z,9.05
2019-05-15T11:33:18.815Z,10.18
2019-05-15T11:35:28.371Z,10.00
2019-05-15T11:37:35.654Z,9.00
2019-05-15T11:39:46.550Z,13.38
2019-05-15T11:41:53.156Z,9.78
2019-05-15T11:44:01.058Z,14.75
2019-05-15T11:46:09.988Z,12.00
2019-05-15T11:48:20.636Z,13.00
2019-05-15T11:50:29.397Z,13.85
2019-05-15T11:52:40.275Z,11.25
2019-05-15T11:54:49.355Z,17.17
2019-05-15T11:56:59.423Z,10.50
2019-05-15T11:59:08.527Z,8.05
2019-05-15T12:01:19.055Z,13.45
2019-05-15T12:03:28.846Z,7.83
2019-05-15T12:05:38.305Z,12.93
2019-05-15T12:07:47.835Z,14.43
2019-05-15T12:09:58.035Z,33.58
2019-05-15T12:12:08.802Z,28.05
2019-05-15T12:14:19.276Z,8.95
2019-05-15T12:16:28.773Z,16.30
2019-05-15T12:18:35.663Z,16.65
2019-05-15T12:20:44.596Z,15.28
2019-05-15T12:22:52.567Z,14.95
2019-05-15T12:25:01.240Z,12.90
2019-05-15T12:27:17.450Z,22.95
2019-05-15T12:29:19.260Z,51.25
2019-05-15T12:31:27.148Z,20.25
2019-05-15T12:33:38.437Z,17.80
2019-05-15T12:35:50.286Z,13.48
2019-05-15T12:37:57.239Z,7.28
2019-05-15T13:01:45.970Z,18.62
2019-05-15T13:03:54.849Z,13.90
2019-05-15T13:06:02.690Z,89.30
2019-05-15T13:08:11.144Z,14.07
2019-05-15T13:10:19.474Z,12.35
2019-05-15T13:12:28.806Z,16.75
2019-05-15T13:14:38.942Z,66.22
2019-05-15T13:16:48.072Z,53.90
2019-05-15T13:18:56.132Z,43.45
2019-05-15T13:21:04.552Z,26.27
2019-05-15T13:23:12.447Z,43.58
2019-05-15T13:25:23.535Z,12.25
2019-05-15T13:27:31.552Z,23.25
2019-05-15T13:29:40.328Z,28.95
2019-05-15T13:31:48.253Z,29.40
2019-05-15T13:33:58.580Z,28.70
2019-05-15T13:36:05.816Z,28.95
2019-05-15T13:38:13.756Z,33.15
2019-05-15T13:40:34.037Z,35.08
2019-05-15T13:42:32.019Z,31.07
2019-05-15T13:44:40.038Z,33.83
2019-05-15T13:46:48.033Z,34.50
2019-05-15T13:48:55.919Z,39.63
2019-05-15T13:51:04.105Z,47.23
2019-05-15T13:53:12.019Z,25.82
2019-05-15T13:55:25.914Z,30.92
2019-05-15T13:57:29.960Z,29.77
2019-05-15T13:59:39.489Z,26.68
2019-05-15T14:01:48.679Z,33.88
2019-05-15T14:03:58.839Z,23.25
2019-05-15T14:06:09.097Z,20.48
2019-05-15T14:08:17.987Z,57.78
2019-05-15T14:10:26.004Z,80.72
2019-05-15T14:12:34.926Z,38.20
2019-05-15T14:14:43.024Z,108.17
2019-05-15T14:16:51.068Z,52.05
2019-05-15T14:18:59.006Z,51.23
2019-05-15T14:21:08.889Z,55.88
2019-05-15T14:23:18.572Z,53.33
2019-05-15T14:25:26.720Z,16.35
2019-05-15T14:27:34.687Z,20.48
2019-05-15T14:29:42.611Z,37.90
2019-05-15T14:31:50.567Z,20.77
2019-05-15T14:33:58.457Z,25.55
2019-05-15T14:36:08.392Z,34.63
2019-05-15T14:38:18.077Z,50.55
2019-05-15T14:40:26.123Z,18.67
2019-05-15T14:42:34.138Z,33.75
2019-05-15T14:44:42.031Z,22.58
2019-05-15T14:46:51.010Z,19.65
2019-05-15T14:48:59.101Z,30.60
2019-05-15T14:51:08.686Z,46.58
2019-05-15T14:53:18.668Z,35.25
2019-05-15T14:55:32.378Z,32.17
2019-05-15T14:57:38.903Z,61.48
2019-05-15T14:59:45.717Z,46.48
2019-05-15T15:01:53.670Z,57.83
2019-05-15T15:04:01.774Z,36.63
2019-05-15T15:06:09.724Z,38.17
2019-05-15T15:08:24.594Z,30.45
2019-05-15T15:10:29.087Z,30.55
2019-05-15T15:12:39.746Z,25.60
2019-05-15T15:14:48.543Z,23.73
2019-05-15T15:16:56.316Z,5.03
2019-05-15T15:19:04.431Z,14.93
2019-05-15T15:21:13.422Z,20.57
2019-05-15T15:23:21.410Z,41.77
2019-05-15T15:25:29.333Z,38.00
2019-05-15T15:27:38.777Z,28.42
2019-05-15T15:29:49.566Z,10.98
2019-05-15T15:31:58.982Z,35.88
2019-05-15T15:34:08.621Z,31.62
2019-05-15T15:36:16.841Z,24.87
2019-05-15T15:38:37.556Z,36.33
2019-05-15T15:40:34.798Z,49.85
2019-05-15T15:42:42.670Z,17.23
2019-05-15T15:44:50.558Z,23.07
2019-05-15T15:46:59.162Z,43.08
2019-05-15T15:49:08.788Z,36.83
2019-05-15T15:51:18.105Z,27.07
2019-05-15T15:53:28.552Z,37.53
2019-05-15T15:55:38.270Z,26.95
2019-05-15T15:57:45.576Z,55.15
2019-05-15T15:59:53.625Z,60.25
2019-05-15T16:02:01.524Z,57.08
2019-05-15T16:04:09.567Z,46.10
2019-05-15T16:06:18.780Z,41.77
2019-05-15T16:08:28.504Z,46.02
2019-05-15T16:10:37.968Z,29.07
2019-05-15T16:12:46.180Z,78.22
2019-05-15T16:14:54.078Z,35.90
2019-05-15T16:17:02.194Z,33.80
2019-05-15T16:19:10.216Z,19.42
2019-05-15T16:21:19.404Z,21.73
2019-05-15T16:23:28.278Z,41.10
2019-05-15T16:25:38.721Z,27.65
2019-05-15T16:27:48.840Z,40.38
2019-05-15T16:29:58.505Z,53.60
2019-05-15T16:32:08.580Z,34.00
2019-05-15T16:34:18.731Z,12.60
2019-05-15T16:36:26.401Z,16.15
2019-05-15T16:38:34.389Z,34.67
2019-05-15T16:40:42.259Z,34.90
2019-05-15T16:42:50.601Z,39.90
2019-05-15T16:44:58.600Z,33.88
2019-05-15T16:47:08.460Z,28.77
2019-05-15T16:49:18.714Z,47.90
2019-05-15T16:51:28.828Z,29.75
2019-05-15T16:53:38.299Z,39.20
2019-05-15T16:55:48.077Z,26.97
2019-05-15T16:57:58.379Z,99.30
2019-05-15T17:00:11.015Z,72.80
2019-05-15T17:02:19.010Z,77.42
2019-05-15T17:04:28.758Z,63.23
2019-05-15T17:06:38.669Z,31.95
2019-05-15T17:08:48.709Z,34.88
2019-05-15T17:10:58.619Z,26.45
2019-05-15T17:13:08.761Z,18.90
2019-05-15T17:15:17.763Z,46.25
2019-05-15T17:17:27.492Z,25.10
2019-05-15T17:19:36.534Z,35.43
2019-05-15T17:21:44.556Z,39.42
2019-05-15T17:23:52.896Z,33.90
2019-05-15T17:26:01.427Z,65.05
2019-05-15T17:28:09.343Z,33.00
2019-05-15T17:30:18.351Z,34.98
2019-05-15T17:32:29.032Z,73.02
2019-05-15T17:34:37.956Z,24.72
2019-05-15T17:36:48.756Z,20.05
2019-05-15T17:38:57.911Z,26.40
2019-05-15T17:41:08.155Z,23.83
2019-05-15T17:43:17.628Z,23.50
2019-05-15T17:45:27.870Z,24.32
2019-05-15T17:47:35.124Z,51.30
2019-05-15T17:49:43.072Z,54.40
2019-05-15T17:51:50.965Z,39.05
2019-05-15T17:53:58.953Z,47.48
2019-05-15T17:56:07.125Z,45.70
2019-05-15T17:58:15.019Z,39.08
2019-05-15T18:00:23.618Z,40.48
2019-05-15T18:02:31.887Z,21.62
2019-05-15T18:04:39.678Z,33.42
2019-05-15T18:06:48.435Z,54.73
2019-05-15T18:08:59.345Z,46.33
2019-05-15T18:11:08.079Z,56.15
2019-05-15T18:13:16.113Z,18.87
2019-05-15T18:15:24.117Z,17.23
2019-05-15T18:17:32.376Z,19.48
2019-05-15T18:19:40.265Z,19.50
2019-05-15T18:21:49.871Z,35.17
2019-05-15T18:23:58.682Z,44.95
2019-05-15T18:26:08.846Z,33.30
2019-05-15T18:28:18.621Z,24.80
2019-05-15T18:30:28.330Z,22.25
2019-05-15T18:32:39.256Z,19.35
2019-05-15T18:34:48.801Z,19.67
2019-05-15T18:36:57.881Z,22.00
2019-05-15T18:39:08.430Z,22.70
2019-05-15T18:41:18.403Z,18.73
2019-05-15T18:43:28.445Z,21.80
2019-05-15T18:45:38.164Z,21.30
2019-05-15T18:47:47.943Z,23.32
2019-05-15T18:50:05.133Z,25.68
2019-05-15T18:52:05.647Z,28.98
2019-05-15T18:54:13.636Z,22.00
2019-05-15T18:56:21.710Z,22.93
2019-05-15T18:58:29.820Z,22.10
2019-05-15T19:00:39.965Z,22.10
2019-05-15T19:02:48.577Z,23.07
2019-05-15T19:04:58.739Z,24.20
2019-05-15T19:07:08.699Z,30.15
2019-05-15T19:09:15.948Z,31.10
2019-05-15T19:11:23.924Z,35.52
2019-05-15T19:13:31.831Z,35.40
2019-05-15T19:15:39.973Z,36.95
2019-05-15T19:17:47.903Z,43.45
2019-05-15T19:19:58.708Z,43.02
2019-05-15T19:22:08.771Z,49.45
2019-05-15T19:24:18.559Z,52.75
2019-05-15T19:26:28.969Z,48.45
2019-05-15T19:28:39.151Z,41.80
2019-05-15T19:30:48.100Z,36.63
2019-05-15T19:32:58.558Z,35.03
2019-05-15T19:35:08.020Z,54.18
2019-05-15T19:37:18.329Z,34.90
2019-05-15T19:39:27.959Z,31.45
2019-05-15T19:41:38.113Z,38.30
2019-05-15T19:43:46.065Z,20.02
2019-05-15T19:45:54.173Z,23.47
2019-05-15T19:48:02.199Z,21.82
2019-05-15T19:50:11.107Z,20.27
2019-05-15T19:52:21.104Z,21.82
2019-05-15T19:54:29.891Z,34.30
2019-05-15T19:56:38.020Z,32.30
2019-05-15T19:58:47.637Z,30.65
2019-05-15T20:00:55.660Z,29.63
2019-05-15T20:03:03.603Z,30.45
2019-05-15T20:05:12.702Z,20.95
2019-05-15T20:07:20.760Z,20.92
2019-05-15T20:09:28.715Z,19.98
2019-05-15T20:11:38.487Z,20.20
2019-05-15T20:13:48.784Z,20.55
2019-05-15T20:15:58.042Z,20.57
2019-05-15T20:18:07.953Z,29.00
2019-05-15T20:20:18.721Z,34.95
2019-05-15T20:22:28.390Z,25.17
2019-05-15T20:24:38.213Z,24.80
2019-05-15T20:26:48.587Z,35.58
2019-05-15T20:28:56.227Z,31.73
2019-05-15T20:31:04.443Z,28.20
2019-05-15T20:33:12.409Z,29.27
2019-05-15T20:35:21.208Z,20.72
2019-05-15T20:37:30.306Z,20.15
2019-05-15T20:39:38.686Z,21.52
2019-05-15T20:41:48.726Z,19.65
2019-05-15T20:43:58.281Z,16.70
2019-05-15T20:46:08.306Z,18.92
2019-05-15T20:48:18.204Z,19.12
2019-05-15T20:50:28.085Z,27.05
2019-05-15T20:52:35.337Z,18.10
2019-05-15T20:54:43.224Z,19.45
2019-05-15T20:56:51.445Z,17.98
2019-05-15T20:58:59.400Z,19.70
2019-05-15T21:01:09.195Z,18.90
2019-05-15T21:03:17.943Z,18.10
2019-05-15T21:05:27.858Z,18.85
2019-05-15T21:07:39.255Z,19.42
2019-05-15T21:09:45.222Z,16.75
2019-05-15T21:11:53.112Z,15.65
2019-05-15T21:14:01.011Z,17.98
2019-05-15T21:16:09.159Z,18.02
2019-05-15T21:18:17.610Z,18.35
2019-05-15T21:20:28.814Z,21.12
2019-05-15T21:22:40.255Z,17.95
2019-05-15T21:24:47.522Z,16.23
2019-05-15T21:26:58.046Z,14.63
2019-05-15T21:29:05.123Z,13.98
2019-05-15T21:31:13.174Z,14.73
2019-05-15T21:33:21.152Z,15.18
2019-05-15T21:35:30.549Z,14.90
2019-05-15T21:37:41.335Z,23.00
2019-05-15T21:39:50.383Z,14.23
2019-05-15T21:41:58.426Z,15.32
2019-05-15T21:44:08.521Z,15.30
2019-05-15T21:46:16.094Z,14.43
2019-05-15T21:48:24.119Z,15.88
2019-05-15T21:50:32.352Z,18.27
2019-05-15T21:52:40.311Z,20.30
2019-05-15T21:54:50.415Z,16.45
2019-05-15T21:57:12.864Z,17.35
2019-05-15T21:59:08.608Z,15.55
2019-05-15T22:01:19.709Z,18.45
2019-05-15T22:05:53.922Z,18.17
2019-05-15T22:08:02.117Z,19.27
2019-05-15T22:10:11.055Z,19.02
2019-05-15T22:12:19.725Z,20.25
2019-05-15T22:14:27.723Z,18.90
2019-05-15T22:16:35.695Z,18.65
2019-05-15T22:18:43.714Z,17.30
2019-05-15T22:20:51.822Z,18.15
2019-05-15T22:23:00.855Z,16.57
2019-05-15T22:25:11.298Z,17.17
2019-05-15T22:27:21.075Z,16.85
2019-05-15T22:29:29.039Z,19.12
2019-05-15T22:31:37.986Z,19.12
2019-05-15T22:33:47.964Z,21.57
2019-05-15T22:35:56.172Z,20.40
2019-05-15T22:38:08.731Z,23.27
2019-05-15T22:40:18.298Z,19.48
2019-05-15T22:42:31.283Z,23.40
2019-05-15T22:44:38.377Z,21.87
2019-05-15T22:46:48.622Z,23.40
2019-05-15T22:48:58.888Z,20.52
2019-05-15T22:51:06.523Z,22.90
2019-05-15T22:53:14.806Z,23.77
2019-05-15T22:55:23.051Z,23.55
2019-05-15T22:57:31.355Z,22.77
2019-05-15T22:59:39.353Z,22.52
2019-05-15T23:01:49.325Z,21.65
2019-05-15T23:03:58.348Z,22.90
2019-05-15T23:06:08.318Z,21.57
2019-05-15T23:08:18.424Z,23.12
2019-05-15T23:10:28.930Z,23.55
2019-05-15T23:12:35.622Z,22.27
2019-05-15T23:14:45.150Z,23.22
2019-05-15T23:16:53.027Z,22.07
2019-05-15T23:19:01.100Z,20.57
2019-05-15T23:21:09.076Z,22.05
2019-05-15T23:23:18.267Z,21.45
2019-05-15T23:25:28.683Z,20.27
2019-05-15T23:27:38.123Z,20.77
2019-05-15T23:29:46.201Z,21.12
2019-05-15T23:31:54.106Z,23.45
2019-05-15T23:34:01.993Z,21.57
2019-05-15T23:36:10.212Z,24.30
2019-05-15T23:38:18.309Z,25.35
2019-05-15T23:40:28.521Z,27.22
2019-05-15T23:42:38.631Z,28.38
2019-05-15T23:44:45.563Z,29.50
2019-05-15T23:46:55.142Z,26.60
2019-05-15T23:49:03.026Z,26.02
2019-05-15T23:51:10.934Z,24.70
2019-05-15T23:53:19.685Z,26.25
2019-05-15T23:55:28.610Z,24.43
2019-05-15T23:57:38.986Z,26.73
2019-05-15T23:59:47.761Z,25.82
